sensor_id;sensor_type;location;lat;lon;timestamp;P1;durP1;ratioP1;P2;durP2;ratioP2
69161;SDS011;56269;51.738;21.652;2023-12-29T00:02:17;9.02;;;3.28;;
69161;SDS011;56269;51.738;21.652;2023-12-29T00:05:02;8.63;;;3.53;;
69161;SDS011;56269;51.738;21.652;2023-12-29T00:07:46;9.52;;;3.65;;
69161;SDS011;56269;51.738;21.652;2023-12-29T00:10:32;8.95;;;3.28;;
69161;SDS011;56269;51.738;21.652;2023-12-29T00:13:16;12.40;;;3.53;;
69161;SDS011;56269;51.738;21.652;2023-12-29T00:16:06;12.52;;;4.18;;
69161;SDS011;56269;51.738;21.652;2023-12-29T00:18:52;10.63;;;4.60;;
69161;SDS011;56269;51.738;21.652;2023-12-29T00:21:37;11.55;;;4.18;;
69161;SDS011;56269;51.738;21.652;2023-12-29T00:24:21;11.40;;;4.38;;
69161;SDS011;56269;51.738;21.652;2023-12-29T00:27:06;8.63;;;3.00;;
69161;SDS011;56269;51.738;21.652;2023-12-29T00:29:51;10.98;;;3.00;;
69161;SDS011;56269;51.738;21.652;2023-12-29T00:32:36;8.67;;;3.37;;
69161;SDS011;56269;51.738;21.652;2023-12-29T00:35:21;9.50;;;3.25;;
69161;SDS011;56269;51.738;21.652;2023-12-29T00:38:06;9.95;;;3.08;;
69161;SDS011;56269;51.738;21.652;2023-12-29T00:40:51;8.30;;;2.65;;
69161;SDS011;56269;51.738;21.652;2023-12-29T00:43:36;8.60;;;2.72;;
69161;SDS011;56269;51.738;21.652;2023-12-29T00:46:20;9.00;;;3.20;;
69161;SDS011;56269;51.738;21.652;2023-12-29T00:49:05;9.45;;;3.35;;
69161;SDS011;56269;51.738;21.652;2023-12-29T00:51:50;10.63;;;3.72;;
69161;SDS011;56269;51.738;21.652;2023-12-29T00:54:36;9.32;;;3.00;;
69161;SDS011;56269;51.738;21.652;2023-12-29T00:57:20;7.70;;;3.38;;
69161;SDS011;56269;51.738;21.652;2023-12-29T01:00:07;7.80;;;3.00;;
69161;SDS011;56269;51.738;21.652;2023-12-29T01:02:55;9.75;;;3.65;;
69161;SDS011;56269;51.738;21.652;2023-12-29T01:05:40;9.02;;;3.53;;
69161;SDS011;56269;51.738;21.652;2023-12-29T01:08:25;13.70;;;4.07;;
69161;SDS011;56269;51.738;21.652;2023-12-29T01:11:10;11.95;;;4.00;;
69161;SDS011;56269;51.738;21.652;2023-12-29T01:13:54;13.13;;;2.93;;
69161;SDS011;56269;51.738;21.652;2023-12-29T01:16:40;10.32;;;2.97;;
69161;SDS011;56269;51.738;21.652;2023-12-29T01:19:26;9.43;;;3.45;;
69161;SDS011;56269;51.738;21.652;2023-12-29T01:22:11;8.63;;;2.83;;
69161;SDS011;56269;51.738;21.652;2023-12-29T01:24:58;9.05;;;3.45;;
69161;SDS011;56269;51.738;21.652;2023-12-29T01:27:44;7.30;;;3.27;;
69161;SDS011;56269;51.738;21.652;2023-12-29T01:30:29;8.40;;;3.25;;
69161;SDS011;56269;51.738;21.652;2023-12-29T01:33:13;12.15;;;5.07;;
69161;SDS011;56269;51.738;21.652;2023-12-29T01:35:58;9.05;;;4.18;;
69161;SDS011;56269;51.738;21.652;2023-12-29T01:38:43;9.68;;;3.70;;
69161;SDS011;56269;51.738;21.652;2023-12-29T01:41:27;7.53;;;3.17;;
69161;SDS011;56269;51.738;21.652;2023-12-29T01:44:19;11.00;;;3.92;;
69161;SDS011;56269;51.738;21.652;2023-12-29T01:47:10;10.18;;;3.83;;
69161;SDS011;56269;51.738;21.652;2023-12-29T01:49:58;7.85;;;2.60;;
69161;SDS011;56269;51.738;21.652;2023-12-29T01:52:43;9.15;;;3.47;;
69161;SDS011;56269;51.738;21.652;2023-12-29T01:55:29;11.43;;;3.47;;
69161;SDS011;56269;51.738;21.652;2023-12-29T01:58:14;8.98;;;3.35;;
69161;SDS011;56269;51.738;21.652;2023-12-29T02:01:00;10.00;;;4.05;;
69161;SDS011;56269;51.738;21.652;2023-12-29T02:03:46;11.18;;;3.95;;
69161;SDS011;56269;51.738;21.652;2023-12-29T02:06:31;8.43;;;3.50;;
69161;SDS011;56269;51.738;21.652;2023-12-29T02:09:17;8.33;;;3.47;;
69161;SDS011;56269;51.738;21.652;2023-12-29T02:12:03;11.80;;;3.65;;
69161;SDS011;56269;51.738;21.652;2023-12-29T02:14:47;11.00;;;3.75;;
69161;SDS011;56269;51.738;21.652;2023-12-29T02:17:45;8.65;;;3.83;;
69161;SDS011;56269;51.738;21.652;2023-12-29T02:20:35;10.27;;;3.88;;
69161;SDS011;56269;51.738;21.652;2023-12-29T02:23:20;7.53;;;2.93;;
69161;SDS011;56269;51.738;21.652;2023-12-29T02:26:07;9.35;;;3.63;;
69161;SDS011;56269;51.738;21.652;2023-12-29T02:29:01;10.13;;;4.10;;
69161;SDS011;56269;51.738;21.652;2023-12-29T02:31:50;6.95;;;2.95;;
69161;SDS011;56269;51.738;21.652;2023-12-29T02:34:38;6.25;;;2.65;;
69161;SDS011;56269;51.738;21.652;2023-12-29T02:37:26;11.73;;;4.23;;
69161;SDS011;56269;51.738;21.652;2023-12-29T02:40:13;11.95;;;4.75;;
69161;SDS011;56269;51.738;21.652;2023-12-29T02:42:59;8.38;;;3.03;;
69161;SDS011;56269;51.738;21.652;2023-12-29T02:45:44;10.57;;;3.58;;
69161;SDS011;56269;51.738;21.652;2023-12-29T02:48:28;11.13;;;3.63;;
69161;SDS011;56269;51.738;21.652;2023-12-29T02:51:13;10.73;;;4.23;;
69161;SDS011;56269;51.738;21.652;2023-12-29T02:53:58;10.23;;;3.92;;
69161;SDS011;56269;51.738;21.652;2023-12-29T02:56:44;9.07;;;3.80;;
69161;SDS011;56269;51.738;21.652;2023-12-29T02:59:28;9.80;;;3.55;;
69161;SDS011;56269;51.738;21.652;2023-12-29T03:02:13;11.85;;;4.07;;
69161;SDS011;56269;51.738;21.652;2023-12-29T03:04:58;10.13;;;3.93;;
69161;SDS011;56269;51.738;21.652;2023-12-29T03:07:43;7.40;;;3.63;;
69161;SDS011;56269;51.738;21.652;2023-12-29T03:10:27;11.48;;;4.65;;
69161;SDS011;56269;51.738;21.652;2023-12-29T03:13:12;12.13;;;5.03;;
69161;SDS011;56269;51.738;21.652;2023-12-29T03:15:57;12.82;;;4.22;;
69161;SDS011;56269;51.738;21.652;2023-12-29T03:18:42;9.87;;;4.33;;
69161;SDS011;56269;51.738;21.652;2023-12-29T03:21:27;12.88;;;4.22;;
69161;SDS011;56269;51.738;21.652;2023-12-29T03:24:12;11.07;;;4.47;;
69161;SDS011;56269;51.738;21.652;2023-12-29T03:26:57;11.55;;;3.83;;
69161;SDS011;56269;51.738;21.652;2023-12-29T03:29:42;7.68;;;3.35;;
69161;SDS011;56269;51.738;21.652;2023-12-29T03:32:26;11.87;;;4.13;;
69161;SDS011;56269;51.738;21.652;2023-12-29T03:35:11;9.40;;;3.75;;
69161;SDS011;56269;51.738;21.652;2023-12-29T03:37:56;10.15;;;3.80;;
69161;SDS011;56269;51.738;21.652;2023-12-29T03:40:41;14.27;;;4.57;;
69161;SDS011;56269;51.738;21.652;2023-12-29T03:43:25;10.80;;;4.50;;
69161;SDS011;56269;51.738;21.652;2023-12-29T03:46:17;10.63;;;4.97;;
69161;SDS011;56269;51.738;21.652;2023-12-29T03:49:02;7.18;;;2.90;;
69161;SDS011;56269;51.738;21.652;2023-12-29T03:51:47;10.88;;;4.15;;
69161;SDS011;56269;51.738;21.652;2023-12-29T03:54:31;10.40;;;4.78;;
69161;SDS011;56269;51.738;21.652;2023-12-29T03:57:16;9.52;;;3.90;;
69161;SDS011;56269;51.738;21.652;2023-12-29T04:00:00;11.93;;;4.40;;
69161;SDS011;56269;51.738;21.652;2023-12-29T04:02:45;10.45;;;3.67;;
69161;SDS011;56269;51.738;21.652;2023-12-29T04:05:30;9.98;;;3.80;;
69161;SDS011;56269;51.738;21.652;2023-12-29T04:08:15;10.57;;;4.28;;
69161;SDS011;56269;51.738;21.652;2023-12-29T04:10:59;12.95;;;4.55;;
69161;SDS011;56269;51.738;21.652;2023-12-29T04:13:44;11.03;;;4.50;;
69161;SDS011;56269;51.738;21.652;2023-12-29T04:16:29;10.27;;;4.60;;
69161;SDS011;56269;51.738;21.652;2023-12-29T04:19:13;11.82;;;5.03;;
69161;SDS011;56269;51.738;21.652;2023-12-29T04:21:58;10.40;;;4.22;;
69161;SDS011;56269;51.738;21.652;2023-12-29T04:24:43;9.60;;;3.95;;
69161;SDS011;56269;51.738;21.652;2023-12-29T04:27:27;11.97;;;4.80;;
69161;SDS011;56269;51.738;21.652;2023-12-29T04:30:12;7.95;;;3.72;;
69161;SDS011;56269;51.738;21.652;2023-12-29T04:32:57;10.85;;;4.55;;
69161;SDS011;56269;51.738;21.652;2023-12-29T04:35:42;11.15;;;4.15;;
69161;SDS011;56269;51.738;21.652;2023-12-29T04:38:27;12.25;;;4.47;;
69161;SDS011;56269;51.738;21.652;2023-12-29T04:41:11;12.53;;;4.37;;
69161;SDS011;56269;51.738;21.652;2023-12-29T04:43:57;9.50;;;3.75;;
69161;SDS011;56269;51.738;21.652;2023-12-29T04:46:42;11.75;;;4.60;;
69161;SDS011;56269;51.738;21.652;2023-12-29T04:49:27;13.82;;;3.97;;
69161;SDS011;56269;51.738;21.652;2023-12-29T04:52:12;10.95;;;4.40;;
69161;SDS011;56269;51.738;21.652;2023-12-29T04:54:57;14.07;;;4.83;;
69161;SDS011;56269;51.738;21.652;2023-12-29T04:57:41;10.52;;;3.83;;
69161;SDS011;56269;51.738;21.652;2023-12-29T05:00:26;11.80;;;4.60;;
69161;SDS011;56269;51.738;21.652;2023-12-29T05:03:11;15.32;;;5.55;;
69161;SDS011;56269;51.738;21.652;2023-12-29T05:05:55;14.20;;;5.65;;
69161;SDS011;56269;51.738;21.652;2023-12-29T05:08:40;11.33;;;4.97;;
69161;SDS011;56269;51.738;21.652;2023-12-29T05:11:25;11.65;;;4.72;;
69161;SDS011;56269;51.738;21.652;2023-12-29T05:14:10;12.40;;;4.90;;
69161;SDS011;56269;51.738;21.652;2023-12-29T05:16:54;13.05;;;4.78;;
69161;SDS011;56269;51.738;21.652;2023-12-29T05:19:39;14.20;;;4.70;;
69161;SDS011;56269;51.738;21.652;2023-12-29T05:22:24;12.03;;;5.50;;
69161;SDS011;56269;51.738;21.652;2023-12-29T05:25:09;10.13;;;4.38;;
69161;SDS011;56269;51.738;21.652;2023-12-29T05:27:53;12.57;;;4.47;;
69161;SDS011;56269;51.738;21.652;2023-12-29T05:30:38;13.80;;;5.03;;
69161;SDS011;56269;51.738;21.652;2023-12-29T05:33:23;10.13;;;4.75;;
69161;SDS011;56269;51.738;21.652;2023-12-29T05:36:08;11.80;;;4.33;;
69161;SDS011;56269;51.738;21.652;2023-12-29T05:38:55;11.82;;;4.85;;
69161;SDS011;56269;51.738;21.652;2023-12-29T05:41:40;11.23;;;4.50;;
69161;SDS011;56269;51.738;21.652;2023-12-29T05:44:25;10.38;;;4.55;;
69161;SDS011;56269;51.738;21.652;2023-12-29T05:47:11;14.70;;;4.70;;
69161;SDS011;56269;51.738;21.652;2023-12-29T05:49:56;15.13;;;5.13;;
69161;SDS011;56269;51.738;21.652;2023-12-29T05:52:41;12.48;;;4.80;;
69161;SDS011;56269;51.738;21.652;2023-12-29T05:55:26;11.35;;;4.47;;
69161;SDS011;56269;51.738;21.652;2023-12-29T05:58:11;11.95;;;4.85;;
69161;SDS011;56269;51.738;21.652;2023-12-29T06:00:56;13.43;;;5.38;;
69161;SDS011;56269;51.738;21.652;2023-12-29T06:03:41;13.33;;;4.73;;
69161;SDS011;56269;51.738;21.652;2023-12-29T06:06:26;11.63;;;4.20;;
69161;SDS011;56269;51.738;21.652;2023-12-29T06:09:11;7.82;;;3.30;;
69161;SDS011;56269;51.738;21.652;2023-12-29T06:11:55;12.35;;;5.32;;
69161;SDS011;56269;51.738;21.652;2023-12-29T06:14:41;13.02;;;4.78;;
69161;SDS011;56269;51.738;21.652;2023-12-29T06:17:25;10.07;;;4.53;;
69161;SDS011;56269;51.738;21.652;2023-12-29T06:20:11;11.45;;;4.30;;
69161;SDS011;56269;51.738;21.652;2023-12-29T06:22:55;9.23;;;4.03;;
69161;SDS011;56269;51.738;21.652;2023-12-29T06:25:40;12.98;;;4.78;;
69161;SDS011;56269;51.738;21.652;2023-12-29T06:28:25;14.10;;;5.80;;
69161;SDS011;56269;51.738;21.652;2023-12-29T06:31:10;14.00;;;4.20;;
69161;SDS011;56269;51.738;21.652;2023-12-29T06:33:54;14.30;;;5.55;;
69161;SDS011;56269;51.738;21.652;2023-12-29T06:36:39;15.73;;;5.72;;
69161;SDS011;56269;51.738;21.652;2023-12-29T06:39:24;10.98;;;4.47;;
69161;SDS011;56269;51.738;21.652;2023-12-29T06:42:08;11.45;;;5.07;;
69161;SDS011;56269;51.738;21.652;2023-12-29T06:44:53;11.63;;;4.83;;
69161;SDS011;56269;51.738;21.652;2023-12-29T06:47:38;15.55;;;4.10;;
69161;SDS011;56269;51.738;21.652;2023-12-29T06:50:23;16.15;;;5.75;;
69161;SDS011;56269;51.738;21.652;2023-12-29T06:53:08;10.27;;;4.60;;
69161;SDS011;56269;51.738;21.652;2023-12-29T06:55:52;13.88;;;5.65;;
69161;SDS011;56269;51.738;21.652;2023-12-29T06:58:38;10.10;;;4.43;;
69161;SDS011;56269;51.738;21.652;2023-12-29T07:01:22;13.30;;;4.60;;
69161;SDS011;56269;51.738;21.652;2023-12-29T07:04:07;12.70;;;4.25;;
69161;SDS011;56269;51.738;21.652;2023-12-29T07:06:54;12.68;;;4.38;;
69161;SDS011;56269;51.738;21.652;2023-12-29T07:09:39;13.90;;;4.82;;
69161;SDS011;56269;51.738;21.652;2023-12-29T07:12:24;12.60;;;5.27;;
69161;SDS011;56269;51.738;21.652;2023-12-29T07:15:09;12.00;;;5.22;;
69161;SDS011;56269;51.738;21.652;2023-12-29T07:17:54;9.18;;;4.20;;
69161;SDS011;56269;51.738;21.652;2023-12-29T07:20:39;10.93;;;4.28;;
69161;SDS011;56269;51.738;21.652;2023-12-29T07:23:24;12.18;;;5.88;;
69161;SDS011;56269;51.738;21.652;2023-12-29T07:26:09;12.30;;;4.67;;
69161;SDS011;56269;51.738;21.652;2023-12-29T07:28:54;10.52;;;4.18;;
69161;SDS011;56269;51.738;21.652;2023-12-29T07:31:39;13.93;;;4.95;;
69161;SDS011;56269;51.738;21.652;2023-12-29T07:34:24;10.27;;;4.40;;
69161;SDS011;56269;51.738;21.652;2023-12-29T07:37:09;14.10;;;5.60;;
69161;SDS011;56269;51.738;21.652;2023-12-29T07:39:53;11.03;;;4.60;;
69161;SDS011;56269;51.738;21.652;2023-12-29T07:42:39;12.77;;;5.13;;
69161;SDS011;56269;51.738;21.652;2023-12-29T07:45:24;14.10;;;5.40;;
69161;SDS011;56269;51.738;21.652;2023-12-29T07:48:09;14.30;;;5.35;;
69161;SDS011;56269;51.738;21.652;2023-12-29T07:50:54;11.25;;;4.72;;
69161;SDS011;56269;51.738;21.652;2023-12-29T07:53:43;13.90;;;5.40;;
69161;SDS011;56269;51.738;21.652;2023-12-29T07:56:27;13.35;;;4.22;;
69161;SDS011;56269;51.738;21.652;2023-12-29T07:59:13;14.52;;;5.55;;
69161;SDS011;56269;51.738;21.652;2023-12-29T08:01:57;9.50;;;4.25;;
69161;SDS011;56269;51.738;21.652;2023-12-29T08:04:43;11.07;;;4.80;;
69161;SDS011;56269;51.738;21.652;2023-12-29T08:07:30;11.37;;;4.53;;
69161;SDS011;56269;51.738;21.652;2023-12-29T08:10:16;12.48;;;4.40;;
69161;SDS011;56269;51.738;21.652;2023-12-29T08:13:01;10.93;;;4.55;;
69161;SDS011;56269;51.738;21.652;2023-12-29T08:15:46;14.27;;;5.60;;
69161;SDS011;56269;51.738;21.652;2023-12-29T08:18:30;9.80;;;4.85;;
69161;SDS011;56269;51.738;21.652;2023-12-29T08:21:16;12.67;;;5.10;;
69161;SDS011;56269;51.738;21.652;2023-12-29T08:24:04;10.57;;;3.95;;
69161;SDS011;56269;51.738;21.652;2023-12-29T08:26:49;10.25;;;4.82;;
69161;SDS011;56269;51.738;21.652;2023-12-29T08:29:34;11.25;;;5.10;;
69161;SDS011;56269;51.738;21.652;2023-12-29T08:32:19;8.75;;;3.80;;
69161;SDS011;56269;51.738;21.652;2023-12-29T08:35:04;7.87;;;3.60;;
69161;SDS011;56269;51.738;21.652;2023-12-29T08:37:50;13.02;;;4.93;;
69161;SDS011;56269;51.738;21.652;2023-12-29T08:40:35;10.80;;;4.45;;
69161;SDS011;56269;51.738;21.652;2023-12-29T08:43:23;11.15;;;4.78;;
69161;SDS011;56269;51.738;21.652;2023-12-29T08:46:07;12.48;;;5.00;;
69161;SDS011;56269;51.738;21.652;2023-12-29T08:48:53;15.57;;;5.43;;
69161;SDS011;56269;51.738;21.652;2023-12-29T08:51:37;16.27;;;5.22;;
69161;SDS011;56269;51.738;21.652;2023-12-29T08:54:22;9.48;;;4.20;;
69161;SDS011;56269;51.738;21.652;2023-12-29T08:57:07;9.95;;;4.63;;
69161;SDS011;56269;51.738;21.652;2023-12-29T08:59:52;9.50;;;4.00;;
69161;SDS011;56269;51.738;21.652;2023-12-29T09:02:37;8.80;;;4.47;;
69161;SDS011;56269;51.738;21.652;2023-12-29T09:05:22;15.32;;;3.88;;
69161;SDS011;56269;51.738;21.652;2023-12-29T09:08:06;9.98;;;4.00;;
69161;SDS011;56269;51.738;21.652;2023-12-29T09:10:51;10.55;;;4.03;;
69161;SDS011;56269;51.738;21.652;2023-12-29T09:13:36;9.85;;;3.70;;
69161;SDS011;56269;51.738;21.652;2023-12-29T09:16:21;6.90;;;2.83;;
69161;SDS011;56269;51.738;21.652;2023-12-29T09:19:06;8.90;;;3.13;;
69161;SDS011;56269;51.738;21.652;2023-12-29T09:21:51;14.50;;;4.70;;
69161;SDS011;56269;51.738;21.652;2023-12-29T09:24:36;11.70;;;4.60;;
69161;SDS011;56269;51.738;21.652;2023-12-29T09:27:21;9.98;;;3.55;;
69161;SDS011;56269;51.738;21.652;2023-12-29T09:30:06;9.67;;;3.47;;
69161;SDS011;56269;51.738;21.652;2023-12-29T09:32:51;10.57;;;3.42;;
69161;SDS011;56269;51.738;21.652;2023-12-29T09:35:36;10.65;;;4.43;;
69161;SDS011;56269;51.738;21.652;2023-12-29T09:38:21;9.38;;;3.90;;
69161;SDS011;56269;51.738;21.652;2023-12-29T09:41:09;7.28;;;2.90;;
69161;SDS011;56269;51.738;21.652;2023-12-29T09:43:58;8.67;;;3.07;;
69161;SDS011;56269;51.738;21.652;2023-12-29T09:46:45;9.35;;;3.88;;
69161;SDS011;56269;51.738;21.652;2023-12-29T09:49:38;9.55;;;4.13;;
69161;SDS011;56269;51.738;21.652;2023-12-29T09:52:24;6.72;;;3.00;;
69161;SDS011;56269;51.738;21.652;2023-12-29T09:55:10;8.52;;;3.63;;
69161;SDS011;56269;51.738;21.652;2023-12-29T09:57:55;12.83;;;4.00;;
69161;SDS011;56269;51.738;21.652;2023-12-29T10:00:44;8.93;;;3.22;;
69161;SDS011;56269;51.738;21.652;2023-12-29T10:03:31;9.90;;;3.80;;
69161;SDS011;56269;51.738;21.652;2023-12-29T10:06:17;8.60;;;3.00;;
69161;SDS011;56269;51.738;21.652;2023-12-29T10:09:05;9.27;;;3.30;;
69161;SDS011;56269;51.738;21.652;2023-12-29T10:11:55;10.10;;;3.60;;
69161;SDS011;56269;51.738;21.652;2023-12-29T10:14:55;8.68;;;3.75;;
69161;SDS011;56269;51.738;21.652;2023-12-29T10:20:50;9.93;;;3.38;;
69161;SDS011;56269;51.738;21.652;2023-12-29T10:23:44;7.53;;;2.85;;
69161;SDS011;56269;51.738;21.652;2023-12-29T10:26:36;6.77;;;2.57;;
69161;SDS011;56269;51.738;21.652;2023-12-29T10:29:21;7.97;;;2.67;;
69161;SDS011;56269;51.738;21.652;2023-12-29T10:32:06;9.85;;;3.25;;
69161;SDS011;56269;51.738;21.652;2023-12-29T10:34:52;9.68;;;2.28;;
69161;SDS011;56269;51.738;21.652;2023-12-29T10:37:52;7.43;;;2.75;;
69161;SDS011;56269;51.738;21.652;2023-12-29T10:40:37;9.00;;;2.37;;
69161;SDS011;56269;51.738;21.652;2023-12-29T10:43:24;6.88;;;2.15;;
69161;SDS011;56269;51.738;21.652;2023-12-29T10:46:10;10.77;;;3.28;;
69161;SDS011;56269;51.738;21.652;2023-12-29T10:48:59;5.57;;;2.30;;
69161;SDS011;56269;51.738;21.652;2023-12-29T10:51:53;6.60;;;2.55;;
69161;SDS011;56269;51.738;21.652;2023-12-29T10:54:40;6.93;;;2.10;;
69161;SDS011;56269;51.738;21.652;2023-12-29T10:57:25;6.80;;;2.85;;
69161;SDS011;56269;51.738;21.652;2023-12-29T11:00:10;7.75;;;3.00;;
69161;SDS011;56269;51.738;21.652;2023-12-29T11:02:57;8.25;;;3.20;;
69161;SDS011;56269;51.738;21.652;2023-12-29T11:05:42;7.05;;;2.75;;
69161;SDS011;56269;51.738;21.652;2023-12-29T11:08:27;7.83;;;3.10;;
69161;SDS011;56269;51.738;21.652;2023-12-29T11:11:12;8.68;;;3.00;;
69161;SDS011;56269;51.738;21.652;2023-12-29T11:13:56;8.18;;;3.08;;
69161;SDS011;56269;51.738;21.652;2023-12-29T11:16:43;6.18;;;2.15;;
69161;SDS011;56269;51.738;21.652;2023-12-29T11:19:28;8.40;;;2.33;;
69161;SDS011;56269;51.738;21.652;2023-12-29T11:22:13;7.77;;;2.77;;
69161;SDS011;56269;51.738;21.652;2023-12-29T11:24:59;5.78;;;2.10;;
69161;SDS011;56269;51.738;21.652;2023-12-29T11:27:44;7.15;;;2.30;;
69161;SDS011;56269;51.738;21.652;2023-12-29T11:30:29;6.55;;;2.55;;
69161;SDS011;56269;51.738;21.652;2023-12-29T11:33:18;5.90;;;2.10;;
69161;SDS011;56269;51.738;21.652;2023-12-29T11:36:25;6.50;;;2.17;;
69161;SDS011;56269;51.738;21.652;2023-12-29T11:39:27;6.15;;;2.10;;
69161;SDS011;56269;51.738;21.652;2023-12-29T11:42:23;5.88;;;1.98;;
69161;SDS011;56269;51.738;21.652;2023-12-29T11:45:30;6.47;;;2.58;;
69161;SDS011;56269;51.738;21.652;2023-12-29T11:51:46;7.50;;;2.60;;
69161;SDS011;56269;51.738;21.652;2023-12-29T11:54:33;6.63;;;2.35;;
69161;SDS011;56269;51.738;21.652;2023-12-29T11:57:30;7.00;;;2.47;;
69161;SDS011;56269;51.738;21.652;2023-12-29T12:00:16;6.00;;;2.33;;
69161;SDS011;56269;51.738;21.652;2023-12-29T12:03:00;4.95;;;2.00;;
69161;SDS011;56269;51.738;21.652;2023-12-29T12:05:48;5.67;;;2.03;;
69161;SDS011;56269;51.738;21.652;2023-12-29T12:08:34;5.43;;;1.90;;
69161;SDS011;56269;51.738;21.652;2023-12-29T12:17:38;4.05;;;1.30;;
69161;SDS011;56269;51.738;21.652;2023-12-29T12:20:22;4.10;;;1.37;;
69161;SDS011;56269;51.738;21.652;2023-12-29T12:23:10;4.43;;;1.70;;
69161;SDS011;56269;51.738;21.652;2023-12-29T12:25:58;5.72;;;2.10;;
69161;SDS011;56269;51.738;21.652;2023-12-29T12:28:46;5.68;;;2.10;;
69161;SDS011;56269;51.738;21.652;2023-12-29T12:31:30;6.35;;;2.35;;
69161;SDS011;56269;51.738;21.652;2023-12-29T12:34:16;5.67;;;1.60;;
69161;SDS011;56269;51.738;21.652;2023-12-29T12:37:01;5.63;;;1.90;;
69161;SDS011;56269;51.738;21.652;2023-12-29T12:39:48;5.97;;;2.50;;
69161;SDS011;56269;51.738;21.652;2023-12-29T12:42:33;5.18;;;1.85;;
69161;SDS011;56269;51.738;21.652;2023-12-29T12:45:25;7.10;;;2.25;;
69161;SDS011;56269;51.738;21.652;2023-12-29T12:48:13;4.13;;;1.40;;
69161;SDS011;56269;51.738;21.652;2023-12-29T12:51:04;3.22;;;1.25;;
69161;SDS011;56269;51.738;21.652;2023-12-29T12:53:49;4.22;;;1.60;;
69161;SDS011;56269;51.738;21.652;2023-12-29T12:56:36;4.85;;;1.38;;
69161;SDS011;56269;51.738;21.652;2023-12-29T12:59:21;4.13;;;1.48;;
69161;SDS011;56269;51.738;21.652;2023-12-29T13:02:07;5.07;;;1.70;;
69161;SDS011;56269;51.738;21.652;2023-12-29T13:04:53;6.15;;;2.10;;
69161;SDS011;56269;51.738;21.652;2023-12-29T13:07:38;4.75;;;1.50;;
69161;SDS011;56269;51.738;21.652;2023-12-29T13:10:23;6.60;;;1.75;;
69161;SDS011;56269;51.738;21.652;2023-12-29T13:13:08;4.85;;;1.80;;
69161;SDS011;56269;51.738;21.652;2023-12-29T13:15:54;4.60;;;1.63;;
69161;SDS011;56269;51.738;21.652;2023-12-29T13:18:38;4.47;;;1.48;;
69161;SDS011;56269;51.738;21.652;2023-12-29T13:21:23;4.45;;;1.65;;
69161;SDS011;56269;51.738;21.652;2023-12-29T13:24:08;7.82;;;2.00;;
69161;SDS011;56269;51.738;21.652;2023-12-29T13:27:06;6.40;;;1.70;;
69161;SDS011;56269;51.738;21.652;2023-12-29T13:29:51;6.03;;;1.70;;
69161;SDS011;56269;51.738;21.652;2023-12-29T13:32:36;4.68;;;1.70;;
69161;SDS011;56269;51.738;21.652;2023-12-29T13:35:30;5.22;;;1.23;;
69161;SDS011;56269;51.738;21.652;2023-12-29T13:38:28;4.65;;;1.42;;
69161;SDS011;56269;51.738;21.652;2023-12-29T13:41:21;5.18;;;1.75;;
69161;SDS011;56269;51.738;21.652;2023-12-29T13:44:06;3.87;;;1.50;;
69161;SDS011;56269;51.738;21.652;2023-12-29T13:46:53;4.50;;;1.60;;
69161;SDS011;56269;51.738;21.652;2023-12-29T13:49:38;6.70;;;2.13;;
69161;SDS011;56269;51.738;21.652;2023-12-29T13:52:23;4.40;;;1.60;;
69161;SDS011;56269;51.738;21.652;2023-12-29T13:55:08;7.85;;;2.00;;
69161;SDS011;56269;51.738;21.652;2023-12-29T13:57:53;4.13;;;1.63;;
69161;SDS011;56269;51.738;21.652;2023-12-29T14:00:39;7.07;;;1.98;;
69161;SDS011;56269;51.738;21.652;2023-12-29T14:03:31;6.40;;;2.40;;
69161;SDS011;56269;51.738;21.652;2023-12-29T14:06:22;4.35;;;1.70;;
69161;SDS011;56269;51.738;21.652;2023-12-29T14:09:15;5.95;;;1.80;;
69161;SDS011;56269;51.738;21.652;2023-12-29T14:12:00;5.13;;;1.60;;
69161;SDS011;56269;51.738;21.652;2023-12-29T14:14:45;5.43;;;2.03;;
69161;SDS011;56269;51.738;21.652;2023-12-29T14:17:30;5.38;;;2.03;;
69161;SDS011;56269;51.738;21.652;2023-12-29T14:20:32;5.57;;;1.88;;
69161;SDS011;56269;51.738;21.652;2023-12-29T14:23:18;7.85;;;2.53;;
69161;SDS011;56269;51.738;21.652;2023-12-29T14:26:04;4.13;;;1.93;;
69161;SDS011;56269;51.738;21.652;2023-12-29T14:28:59;4.80;;;1.30;;
69161;SDS011;56269;51.738;21.652;2023-12-29T14:31:47;5.20;;;1.67;;
69161;SDS011;56269;51.738;21.652;2023-12-29T14:34:35;7.05;;;2.10;;
69161;SDS011;56269;51.738;21.652;2023-12-29T14:37:20;5.40;;;1.80;;
69161;SDS011;56269;51.738;21.652;2023-12-29T14:40:05;5.10;;;1.70;;
69161;SDS011;56269;51.738;21.652;2023-12-29T14:42:50;7.55;;;1.75;;
69161;SDS011;56269;51.738;21.652;2023-12-29T14:45:35;5.57;;;1.65;;
69161;SDS011;56269;51.738;21.652;2023-12-29T14:48:20;9.05;;;2.33;;
69161;SDS011;56269;51.738;21.652;2023-12-29T14:51:08;5.28;;;1.67;;
69161;SDS011;56269;51.738;21.652;2023-12-29T14:53:53;9.40;;;2.30;;
69161;SDS011;56269;51.738;21.652;2023-12-29T14:56:38;4.80;;;2.28;;
69161;SDS011;56269;51.738;21.652;2023-12-29T14:59:23;5.38;;;2.05;;
69161;SDS011;56269;51.738;21.652;2023-12-29T15:02:08;4.97;;;1.88;;
69161;SDS011;56269;51.738;21.652;2023-12-29T15:04:53;3.60;;;1.40;;
69161;SDS011;56269;51.738;21.652;2023-12-29T15:07:38;5.87;;;2.07;;
69161;SDS011;56269;51.738;21.652;2023-12-29T15:10:23;6.47;;;1.42;;
69161;SDS011;56269;51.738;21.652;2023-12-29T15:13:08;4.03;;;1.55;;
69161;SDS011;56269;51.738;21.652;2023-12-29T15:15:54;4.47;;;1.65;;
69161;SDS011;56269;51.738;21.652;2023-12-29T15:18:39;5.63;;;2.05;;
69161;SDS011;56269;51.738;21.652;2023-12-29T15:21:24;5.03;;;1.63;;
69161;SDS011;56269;51.738;21.652;2023-12-29T15:24:09;4.82;;;1.30;;
69161;SDS011;56269;51.738;21.652;2023-12-29T15:26:54;3.70;;;1.58;;
69161;SDS011;56269;51.738;21.652;2023-12-29T15:29:39;5.60;;;2.05;;
69161;SDS011;56269;51.738;21.652;2023-12-29T15:32:24;4.35;;;1.70;;
69161;SDS011;56269;51.738;21.652;2023-12-29T15:35:09;4.73;;;1.43;;
69161;SDS011;56269;51.738;21.652;2023-12-29T15:37:54;4.15;;;1.30;;
69161;SDS011;56269;51.738;21.652;2023-12-29T15:40:39;4.60;;;1.80;;
69161;SDS011;56269;51.738;21.652;2023-12-29T15:43:24;4.95;;;1.83;;
69161;SDS011;56269;51.738;21.652;2023-12-29T15:46:16;6.85;;;1.90;;
69161;SDS011;56269;51.738;21.652;2023-12-29T15:49:02;6.10;;;1.87;;
69161;SDS011;56269;51.738;21.652;2023-12-29T15:51:48;5.88;;;1.83;;
69161;SDS011;56269;51.738;21.652;2023-12-29T15:54:33;6.20;;;1.77;;
69161;SDS011;56269;51.738;21.652;2023-12-29T15:57:18;5.78;;;2.20;;
69161;SDS011;56269;51.738;21.652;2023-12-29T16:00:05;5.80;;;1.98;;
69161;SDS011;56269;51.738;21.652;2023-12-29T16:02:52;6.97;;;2.00;;
69161;SDS011;56269;51.738;21.652;2023-12-29T16:05:37;4.28;;;1.50;;
69161;SDS011;56269;51.738;21.652;2023-12-29T16:08:22;6.10;;;2.00;;
69161;SDS011;56269;51.738;21.652;2023-12-29T16:11:08;5.85;;;1.83;;
69161;SDS011;56269;51.738;21.652;2023-12-29T16:13:53;4.15;;;1.38;;
69161;SDS011;56269;51.738;21.652;2023-12-29T16:16:39;7.30;;;2.33;;
69161;SDS011;56269;51.738;21.652;2023-12-29T16:19:25;5.15;;;1.70;;
69161;SDS011;56269;51.738;21.652;2023-12-29T16:22:10;5.32;;;2.08;;
69161;SDS011;56269;51.738;21.652;2023-12-29T16:24:55;3.75;;;1.50;;
69161;SDS011;56269;51.738;21.652;2023-12-29T16:27:44;5.53;;;1.75;;
69161;SDS011;56269;51.738;21.652;2023-12-29T16:30:28;6.53;;;1.83;;
69161;SDS011;56269;51.738;21.652;2023-12-29T16:33:14;5.43;;;2.30;;